createdAt,value
2022-07-28T10:44:20.036Z,29.00
2022-07-28T10:46:47.690Z,28.70
2022-07-28T10:49:15.216Z,28.20
2022-07-28T10:54:36.546Z,27.50
2022-07-28T10:57:06.411Z,27.70
2022-07-28T10:59:36.980Z,27.60
2022-07-28T11:04:51.940Z,26.50
2022-07-28T11:07:20.940Z,25.90
2022-07-28T11:09:48.670Z,25.10
2022-07-28T11:12:16.707Z,24.60
2022-07-28T11:14:44.063Z,24.30
2022-07-28T11:17:11.503Z,24.00
2022-07-28T11:22:34.588Z,23.40
2022-07-28T11:25:18.868Z,23.10
2022-07-28T11:27:52.630Z,22.80
2022-07-28T11:30:22.729Z,22.60
2022-07-28T11:32:55.802Z,22.30
2022-07-28T11:35:25.228Z,22.20
2022-07-28T11:38:02.888Z,22.00
2022-07-28T11:40:44.545Z,21.90
2022-07-28T11:43:35.314Z,21.80
2022-07-28T11:46:11.374Z,21.80
2022-07-28T11:48:41.890Z,21.70
2022-07-28T11:51:10.662Z,21.70
2022-07-28T11:53:47.041Z,21.60
2022-07-28T11:56:17.062Z,21.60
2022-07-28T11:58:44.218Z,21.40
2022-07-28T12:01:20.110Z,21.40
2022-07-28T12:03:54.952Z,21.30
2022-07-28T12:06:28.846Z,21.30
2022-07-28T12:09:05.236Z,21.30
2022-07-28T12:14:05.657Z,21.30
2022-07-28T12:16:45.095Z,21.30
2022-07-28T12:19:15.837Z,21.30
2022-07-28T12:21:51.591Z,21.30
2022-07-28T12:24:30.003Z,21.30
2022-07-28T12:26:58.563Z,21.30
2022-07-28T12:29:32.213Z,21.30
2022-07-28T12:32:11.090Z,21.40
2022-07-28T12:34:40.688Z,21.30
2022-07-28T12:37:12.679Z,21.20
2022-07-28T12:39:43.435Z,21.20
2022-07-28T12:42:13.128Z,21.10
2022-07-28T12:44:47.606Z,21.10
2022-07-28T12:47:16.260Z,21.20
2022-07-28T12:49:44.608Z,21.20
2022-07-28T12:52:23.163Z,21.20
2022-07-28T12:54:55.785Z,21.20
2022-07-28T12:57:49.236Z,21.20
2022-07-28T13:00:20.521Z,21.20
2022-07-28T13:02:49.965Z,21.40
2022-07-28T14:15:13.752Z,20.80
2022-07-28T14:17:43.593Z,20.80
2022-07-28T14:20:16.351Z,20.70
2022-07-28T14:22:44.579Z,20.70
2022-07-28T14:25:21.171Z,20.70
2022-07-28T14:27:50.031Z,20.60
2022-07-28T14:30:18.704Z,20.60
2022-07-28T14:32:45.832Z,20.60
2022-07-28T14:35:13.125Z,20.60
2022-07-28T14:38:15.785Z,20.70
2022-07-28T14:40:27.704Z,20.70
2022-07-28T14:42:55.124Z,20.70
2022-07-28T14:45:22.452Z,20.70
2022-07-28T14:47:49.604Z,20.70
2022-07-28T14:50:16.777Z,20.70
2022-07-28T14:52:44.757Z,20.60
2022-07-28T14:55:12.887Z,20.70
2022-07-28T14:57:52.208Z,20.70
2022-07-28T15:00:23.313Z,20.80
2022-07-28T15:02:53.128Z,20.90
2022-07-28T15:05:21.410Z,21.00
2022-07-28T15:07:49.553Z,21.00
2022-07-28T15:10:16.807Z,21.10
2022-07-28T15:12:44.136Z,21.10
2022-07-28T15:15:12.941Z,21.30
2022-07-28T15:17:40.388Z,21.50
2022-07-28T15:20:08.755Z,21.60
2022-07-28T15:22:35.827Z,21.50
2022-07-28T15:25:04.227Z,21.30
2022-07-28T15:27:33.805Z,21.20
2022-07-28T15:30:02.917Z,21.10
2022-07-28T15:32:31.838Z,21.00
2022-07-28T15:34:59.553Z,21.00
2022-07-28T15:37:28.169Z,20.90
2022-07-28T15:39:55.449Z,20.80
2022-07-28T15:42:22.878Z,20.70
2022-07-28T15:44:50.389Z,20.70
2022-07-28T15:47:17.489Z,20.60
2022-07-28T15:49:44.818Z,20.60
2022-07-28T15:52:12.425Z,20.40
2022-07-28T15:54:39.609Z,20.40
2022-07-28T15:57:06.773Z,20.30
2022-07-28T15:59:49.322Z,20.30
2022-07-28T16:02:18.748Z,20.30
2022-07-28T16:04:53.730Z,20.30
2022-07-28T16:07:24.855Z,20.30
2022-07-28T16:09:54.909Z,20.30
2022-07-28T16:12:25.446Z,20.20
2022-07-28T16:14:54.128Z,20.30
2022-07-28T16:17:21.767Z,20.20
2022-07-28T16:19:50.527Z,20.10
2022-07-28T16:22:21.494Z,20.10
2022-07-28T16:24:49.408Z,20.10
2022-07-28T16:27:16.716Z,20.20
2022-07-28T16:29:44.953Z,20.30
2022-07-28T16:32:12.072Z,20.30
2022-07-28T16:34:39.593Z,20.20
2022-07-28T16:37:06.885Z,20.20
2022-07-28T16:39:34.886Z,20.20
2022-07-28T16:42:03.042Z,20.20
2022-07-28T16:44:30.814Z,20.20
2022-07-28T16:46:58.317Z,20.30
2022-07-28T16:49:25.882Z,20.30
2022-07-28T16:51:54.687Z,20.40
2022-07-28T16:54:22.266Z,20.40
2022-07-28T16:56:50.373Z,20.30
2022-07-28T16:59:17.555Z,20.20
2022-07-28T17:01:46.509Z,20.10
2022-07-28T17:04:17.199Z,20.10
2022-07-28T17:06:45.491Z,20.10
2022-07-28T17:09:15.900Z,20.00
2022-07-28T17:11:44.756Z,20.10
2022-07-28T17:14:12.792Z,20.10
2022-07-28T17:16:40.232Z,20.10
2022-07-28T17:19:07.417Z,20.10
2022-07-28T17:21:36.052Z,20.10
2022-07-28T17:24:03.363Z,20.10
2022-07-28T17:29:19.280Z,20.00
2022-07-28T17:31:46.593Z,20.00
2022-07-28T17:34:14.617Z,20.00
2022-07-28T17:36:42.081Z,19.90
2022-07-28T17:39:09.503Z,19.80
2022-07-28T17:41:36.599Z,19.70
2022-07-28T17:44:04.267Z,19.70
2022-07-28T17:46:32.078Z,19.60
2022-07-28T17:49:00.721Z,19.50
2022-07-28T17:51:28.808Z,19.40
2022-07-28T17:53:55.958Z,19.40
2022-07-28T17:56:23.378Z,19.30
2022-07-28T18:01:19.093Z,19.30
2022-07-28T18:03:58.061Z,19.30
2022-07-28T18:06:33.606Z,19.20
2022-07-28T18:09:07.504Z,19.20
2022-07-28T18:11:55.276Z,19.20
2022-07-28T18:14:24.806Z,19.20
2022-07-28T18:16:51.875Z,19.10
2022-07-28T18:19:19.003Z,19.10
2022-07-28T18:21:46.181Z,19.10
2022-07-28T18:24:13.766Z,19.00
2022-07-28T18:26:41.135Z,19.00
2022-07-28T18:29:08.299Z,18.90
2022-07-28T18:34:03.691Z,18.90
2022-07-28T18:36:31.935Z,18.80
2022-07-28T18:38:59.118Z,18.70
2022-07-28T18:41:26.233Z,18.70
2022-07-28T18:43:53.489Z,18.70
2022-07-28T18:46:21.116Z,18.70
2022-07-28T18:48:57.017Z,18.60
2022-07-28T18:51:25.664Z,18.60
2022-07-28T18:53:52.902Z,18.60
2022-07-28T18:56:20.086Z,18.60
2022-07-28T18:58:47.157Z,18.60
2022-07-28T19:01:14.683Z,18.60
2022-07-28T19:03:42.041Z,18.60
2022-07-28T19:06:10.428Z,18.50
2022-07-28T19:08:37.610Z,18.50
2022-07-28T19:11:04.733Z,18.50
2022-07-28T19:13:33.369Z,18.50
2022-07-28T19:16:00.504Z,18.50
2022-07-28T19:18:27.729Z,18.50
2022-07-28T19:23:24.039Z,18.40
2022-07-28T19:25:51.597Z,18.40
2022-07-28T19:28:19.084Z,18.40
2022-07-28T19:30:49.786Z,18.30
2022-07-28T19:33:19.293Z,18.30
2022-07-28T19:35:46.968Z,18.30
2022-07-28T19:38:14.064Z,18.30
2022-07-28T19:40:43.054Z,18.20
2022-07-28T19:43:10.861Z,18.20
2022-07-28T19:45:39.100Z,18.20
2022-07-28T19:48:07.526Z,18.20
2022-07-28T19:50:36.347Z,18.20
2022-07-28T19:53:04.185Z,18.10
